sensor_id;sensor_type;location;lat;lon;timestamp;P1;durP1;ratioP1;P2;durP2;ratioP2
57899;SDS011;60605;53.716;19.940;2023-08-24T00:01:30;6.00;;;3.20;;
57899;SDS011;60605;53.716;19.940;2023-08-24T00:06:33;9.10;;;3.50;;
57899;SDS011;60605;53.716;19.940;2023-08-24T00:11:35;6.90;;;3.50;;
57899;SDS011;60605;53.716;19.940;2023-08-24T00:16:37;10.40;;;3.80;;
57899;SDS011;60605;53.716;19.940;2023-08-24T00:21:40;8.30;;;3.80;;
57899;SDS011;60605;53.716;19.940;2023-08-24T00:26:41;10.50;;;3.70;;
57899;SDS011;60605;53.716;19.940;2023-08-24T00:31:43;6.20;;;4.10;;
57899;SDS011;60605;53.716;19.940;2023-08-24T00:36:45;5.30;;;3.90;;
57899;SDS011;60605;53.716;19.940;2023-08-24T00:41:47;4.60;;;3.10;;
57899;SDS011;60605;53.716;19.940;2023-08-24T00:46:49;4.50;;;3.50;;
57899;SDS011;60605;53.716;19.940;2023-08-24T00:51:51;3.70;;;3.40;;
57899;SDS011;60605;53.716;19.940;2023-08-24T00:56:54;4.40;;;3.50;;
57899;SDS011;60605;53.716;19.940;2023-08-24T01:01:56;6.20;;;4.10;;
57899;SDS011;60605;53.716;19.940;2023-08-24T01:06:58;8.50;;;3.90;;
57899;SDS011;60605;53.716;19.940;2023-08-24T01:12:02;9.00;;;4.50;;
57899;SDS011;60605;53.716;19.940;2023-08-24T01:17:18;6.30;;;4.40;;
57899;SDS011;60605;53.716;19.940;2023-08-24T01:27:29;7.50;;;3.70;;
57899;SDS011;60605;53.716;19.940;2023-08-24T01:32:33;7.10;;;3.50;;
57899;SDS011;60605;53.716;19.940;2023-08-24T01:37:36;6.30;;;3.10;;
57899;SDS011;60605;53.716;19.940;2023-08-24T01:42:43;5.60;;;3.70;;
57899;SDS011;60605;53.716;19.940;2023-08-24T01:52:56;5.70;;;3.40;;
57899;SDS011;60605;53.716;19.940;2023-08-24T02:03:02;3.40;;;3.10;;
57899;SDS011;60605;53.716;19.940;2023-08-24T02:08:04;7.20;;;3.50;;
57899;SDS011;60605;53.716;19.940;2023-08-24T02:13:07;4.80;;;3.30;;
57899;SDS011;60605;53.716;19.940;2023-08-24T02:18:09;4.40;;;3.30;;
57899;SDS011;60605;53.716;19.940;2023-08-24T02:23:11;5.80;;;2.90;;
57899;SDS011;60605;53.716;19.940;2023-08-24T02:28:12;4.00;;;3.10;;
57899;SDS011;60605;53.716;19.940;2023-08-24T02:33:14;5.30;;;3.40;;
57899;SDS011;60605;53.716;19.940;2023-08-24T02:38:16;5.40;;;3.20;;
57899;SDS011;60605;53.716;19.940;2023-08-24T02:43:18;6.40;;;3.10;;
57899;SDS011;60605;53.716;19.940;2023-08-24T02:48:20;3.90;;;3.10;;
57899;SDS011;60605;53.716;19.940;2023-08-24T02:53:22;4.90;;;3.50;;
57899;SDS011;60605;53.716;19.940;2023-08-24T02:58:24;5.10;;;3.00;;
57899;SDS011;60605;53.716;19.940;2023-08-24T03:03:26;6.10;;;3.40;;
57899;SDS011;60605;53.716;19.940;2023-08-24T03:08:30;4.90;;;3.10;;
57899;SDS011;60605;53.716;19.940;2023-08-24T03:13:36;7.80;;;3.50;;
57899;SDS011;60605;53.716;19.940;2023-08-24T03:18:41;6.00;;;3.70;;
57899;SDS011;60605;53.716;19.940;2023-08-24T03:23:43;6.20;;;3.30;;
57899;SDS011;60605;53.716;19.940;2023-08-24T03:28:45;6.80;;;3.30;;
57899;SDS011;60605;53.716;19.940;2023-08-24T03:33:47;6.60;;;4.00;;
57899;SDS011;60605;53.716;19.940;2023-08-24T03:38:49;5.00;;;3.70;;
57899;SDS011;60605;53.716;19.940;2023-08-24T03:43:51;6.60;;;4.00;;
57899;SDS011;60605;53.716;19.940;2023-08-24T03:48:53;6.70;;;3.70;;
57899;SDS011;60605;53.716;19.940;2023-08-24T03:53:55;8.40;;;3.90;;
57899;SDS011;60605;53.716;19.940;2023-08-24T03:58:56;5.30;;;3.70;;
57899;SDS011;60605;53.716;19.940;2023-08-24T04:03:58;5.00;;;3.60;;
57899;SDS011;60605;53.716;19.940;2023-08-24T04:09:04;5.00;;;3.70;;
57899;SDS011;60605;53.716;19.940;2023-08-24T04:14:07;6.00;;;3.90;;
57899;SDS011;60605;53.716;19.940;2023-08-24T04:19:09;3.80;;;3.40;;
57899;SDS011;60605;53.716;19.940;2023-08-24T04:24:11;6.60;;;3.60;;
57899;SDS011;60605;53.716;19.940;2023-08-24T04:29:13;4.20;;;3.10;;
57899;SDS011;60605;53.716;19.940;2023-08-24T04:34:15;7.00;;;3.60;;
57899;SDS011;60605;53.716;19.940;2023-08-24T04:39:17;6.20;;;3.50;;
57899;SDS011;60605;53.716;19.940;2023-08-24T04:44:22;5.40;;;3.20;;
57899;SDS011;60605;53.716;19.940;2023-08-24T04:49:25;7.40;;;3.20;;
57899;SDS011;60605;53.716;19.940;2023-08-24T04:54:27;5.00;;;3.50;;
57899;SDS011;60605;53.716;19.940;2023-08-24T04:59:29;8.50;;;3.30;;
57899;SDS011;60605;53.716;19.940;2023-08-24T05:04:31;4.40;;;3.10;;
57899;SDS011;60605;53.716;19.940;2023-08-24T05:09:34;7.90;;;3.20;;
57899;SDS011;60605;53.716;19.940;2023-08-24T05:14:35;4.20;;;3.10;;
57899;SDS011;60605;53.716;19.940;2023-08-24T05:19:37;4.00;;;3.10;;
57899;SDS011;60605;53.716;19.940;2023-08-24T05:24:39;5.20;;;2.80;;
57899;SDS011;60605;53.716;19.940;2023-08-24T05:29:41;4.00;;;3.20;;
57899;SDS011;60605;53.716;19.940;2023-08-24T05:34:47;5.80;;;2.60;;
57899;SDS011;60605;53.716;19.940;2023-08-24T05:39:49;3.10;;;2.50;;
57899;SDS011;60605;53.716;19.940;2023-08-24T05:44:52;3.70;;;2.50;;
57899;SDS011;60605;53.716;19.940;2023-08-24T05:49:54;4.30;;;2.40;;
57899;SDS011;60605;53.716;19.940;2023-08-24T05:54:56;3.70;;;2.30;;
57899;SDS011;60605;53.716;19.940;2023-08-24T05:59:58;3.10;;;2.10;;
57899;SDS011;60605;53.716;19.940;2023-08-24T06:05:00;4.10;;;2.30;;
57899;SDS011;60605;53.716;19.940;2023-08-24T06:10:03;5.70;;;2.20;;
57899;SDS011;60605;53.716;19.940;2023-08-24T06:15:05;7.20;;;2.30;;
57899;SDS011;60605;53.716;19.940;2023-08-24T06:20:11;4.60;;;2.10;;
57899;SDS011;60605;53.716;19.940;2023-08-24T06:25:14;7.40;;;2.30;;
57899;SDS011;60605;53.716;19.940;2023-08-24T06:30:16;6.10;;;2.00;;
57899;SDS011;60605;53.716;19.940;2023-08-24T06:35:18;3.00;;;1.90;;
57899;SDS011;60605;53.716;19.940;2023-08-24T06:40:20;3.10;;;2.00;;
57899;SDS011;60605;53.716;19.940;2023-08-24T06:45:23;3.20;;;1.80;;
57899;SDS011;60605;53.716;19.940;2023-08-24T06:50:25;2.90;;;2.10;;
57899;SDS011;60605;53.716;19.940;2023-08-24T06:55:28;4.00;;;1.90;;
57899;SDS011;60605;53.716;19.940;2023-08-24T07:00:30;4.50;;;2.00;;
57899;SDS011;60605;53.716;19.940;2023-08-24T07:05:33;5.00;;;1.70;;
57899;SDS011;60605;53.716;19.940;2023-08-24T07:10:36;3.30;;;1.70;;
57899;SDS011;60605;53.716;19.940;2023-08-24T07:15:39;2.90;;;1.70;;
57899;SDS011;60605;53.716;19.940;2023-08-24T07:20:41;3.10;;;1.50;;
57899;SDS011;60605;53.716;19.940;2023-08-24T07:25:43;9.10;;;1.90;;
57899;SDS011;60605;53.716;19.940;2023-08-24T07:30:45;2.40;;;1.80;;
57899;SDS011;60605;53.716;19.940;2023-08-24T07:35:47;3.60;;;1.50;;
57899;SDS011;60605;53.716;19.940;2023-08-24T07:40:49;2.50;;;1.70;;
57899;SDS011;60605;53.716;19.940;2023-08-24T07:45:51;4.80;;;1.50;;
57899;SDS011;60605;53.716;19.940;2023-08-24T07:50:54;2.00;;;1.40;;
57899;SDS011;60605;53.716;19.940;2023-08-24T07:55:56;2.30;;;1.50;;
57899;SDS011;60605;53.716;19.940;2023-08-24T08:00:59;3.30;;;1.50;;
57899;SDS011;60605;53.716;19.940;2023-08-24T08:06:01;1.90;;;1.30;;
57899;SDS011;60605;53.716;19.940;2023-08-24T08:11:04;1.60;;;1.30;;
57899;SDS011;60605;53.716;19.940;2023-08-24T08:16:06;1.50;;;1.30;;
57899;SDS011;60605;53.716;19.940;2023-08-24T08:21:09;3.60;;;1.40;;
57899;SDS011;60605;53.716;19.940;2023-08-24T08:26:13;4.10;;;1.60;;
57899;SDS011;60605;53.716;19.940;2023-08-24T08:31:15;3.20;;;1.50;;
57899;SDS011;60605;53.716;19.940;2023-08-24T08:36:17;2.10;;;1.70;;
57899;SDS011;60605;53.716;19.940;2023-08-24T08:41:21;1.90;;;1.50;;
57899;SDS011;60605;53.716;19.940;2023-08-24T08:46:24;1.40;;;1.30;;
57899;SDS011;60605;53.716;19.940;2023-08-24T08:51:27;2.30;;;1.40;;
57899;SDS011;60605;53.716;19.940;2023-08-24T08:56:33;1.50;;;1.10;;
57899;SDS011;60605;53.716;19.940;2023-08-24T09:01:36;1.70;;;1.40;;
57899;SDS011;60605;53.716;19.940;2023-08-24T09:06:39;1.20;;;1.10;;
57899;SDS011;60605;53.716;19.940;2023-08-24T09:11:42;2.50;;;1.30;;
57899;SDS011;60605;53.716;19.940;2023-08-24T09:16:48;1.90;;;1.70;;
57899;SDS011;60605;53.716;19.940;2023-08-24T09:21:54;1.40;;;1.10;;
57899;SDS011;60605;53.716;19.940;2023-08-24T09:26:59;2.20;;;1.30;;
57899;SDS011;60605;53.716;19.940;2023-08-24T09:32:01;1.40;;;1.20;;
57899;SDS011;60605;53.716;19.940;2023-08-24T09:37:04;4.30;;;1.80;;
57899;SDS011;60605;53.716;19.940;2023-08-24T09:42:13;2.20;;;1.50;;
57899;SDS011;60605;53.716;19.940;2023-08-24T09:47:15;3.20;;;1.60;;
57899;SDS011;60605;53.716;19.940;2023-08-24T09:52:17;3.00;;;1.50;;
57899;SDS011;60605;53.716;19.940;2023-08-24T09:57:20;2.00;;;1.40;;
57899;SDS011;60605;53.716;19.940;2023-08-24T10:02:23;2.90;;;1.60;;
57899;SDS011;60605;53.716;19.940;2023-08-24T10:07:32;3.90;;;1.40;;
57899;SDS011;60605;53.716;19.940;2023-08-24T10:12:38;2.30;;;1.60;;
57899;SDS011;60605;53.716;19.940;2023-08-24T10:17:43;3.20;;;1.40;;
57899;SDS011;60605;53.716;19.940;2023-08-24T10:22:46;1.60;;;1.40;;
57899;SDS011;60605;53.716;19.940;2023-08-24T10:27:50;2.00;;;1.50;;
57899;SDS011;60605;53.716;19.940;2023-08-24T10:32:55;1.60;;;1.50;;
57899;SDS011;60605;53.716;19.940;2023-08-24T10:37:59;3.50;;;1.20;;
57899;SDS011;60605;53.716;19.940;2023-08-24T10:43:04;2.90;;;1.50;;
57899;SDS011;60605;53.716;19.940;2023-08-24T10:48:07;3.60;;;1.60;;
57899;SDS011;60605;53.716;19.940;2023-08-24T10:53:20;2.90;;;1.70;;
57899;SDS011;60605;53.716;19.940;2023-08-24T10:58:42;2.40;;;1.70;;
57899;SDS011;60605;53.716;19.940;2023-08-24T11:03:52;2.00;;;1.50;;
57899;SDS011;60605;53.716;19.940;2023-08-24T11:09:07;5.50;;;1.90;;
57899;SDS011;60605;53.716;19.940;2023-08-24T11:14:18;1.60;;;1.40;;
57899;SDS011;60605;53.716;19.940;2023-08-24T11:19:23;2.60;;;1.50;;
57899;SDS011;60605;53.716;19.940;2023-08-24T11:24:26;2.20;;;1.60;;
57899;SDS011;60605;53.716;19.940;2023-08-24T11:29:29;2.70;;;1.50;;
57899;SDS011;60605;53.716;19.940;2023-08-24T11:34:31;4.40;;;1.90;;
57899;SDS011;60605;53.716;19.940;2023-08-24T11:39:35;3.70;;;1.40;;
57899;SDS011;60605;53.716;19.940;2023-08-24T11:44:45;1.30;;;1.10;;
57899;SDS011;60605;53.716;19.940;2023-08-24T11:59:54;1.40;;;1.20;;
57899;SDS011;60605;53.716;19.940;2023-08-24T12:04:57;2.00;;;1.40;;
57899;SDS011;60605;53.716;19.940;2023-08-24T12:10:00;2.50;;;1.60;;
57899;SDS011;60605;53.716;19.940;2023-08-24T12:15:02;2.30;;;1.90;;
57899;SDS011;60605;53.716;19.940;2023-08-24T12:20:05;1.60;;;1.50;;
57899;SDS011;60605;53.716;19.940;2023-08-24T12:25:09;1.50;;;1.30;;
57899;SDS011;60605;53.716;19.940;2023-08-24T12:30:11;3.10;;;1.50;;
57899;SDS011;60605;53.716;19.940;2023-08-24T12:35:14;6.00;;;1.50;;
57899;SDS011;60605;53.716;19.940;2023-08-24T12:40:17;2.80;;;1.70;;
57899;SDS011;60605;53.716;19.940;2023-08-24T12:45:19;7.10;;;1.80;;
57899;SDS011;60605;53.716;19.940;2023-08-24T12:50:21;3.90;;;1.60;;
57899;SDS011;60605;53.716;19.940;2023-08-24T12:55:23;1.70;;;1.60;;
57899;SDS011;60605;53.716;19.940;2023-08-24T13:00:25;2.10;;;1.40;;
57899;SDS011;60605;53.716;19.940;2023-08-24T13:05:29;1.80;;;1.70;;
57899;SDS011;60605;53.716;19.940;2023-08-24T13:10:30;1.50;;;1.30;;
57899;SDS011;60605;53.716;19.940;2023-08-24T13:15:32;1.80;;;1.40;;
57899;SDS011;60605;53.716;19.940;2023-08-24T13:20:35;1.90;;;1.60;;
57899;SDS011;60605;53.716;19.940;2023-08-24T13:25:36;3.50;;;1.60;;
57899;SDS011;60605;53.716;19.940;2023-08-24T13:30:38;1.80;;;1.60;;
57899;SDS011;60605;53.716;19.940;2023-08-24T13:35:42;2.60;;;1.60;;
57899;SDS011;60605;53.716;19.940;2023-08-24T13:40:44;2.10;;;1.60;;
57899;SDS011;60605;53.716;19.940;2023-08-24T13:45:48;3.70;;;1.60;;
57899;SDS011;60605;53.716;19.940;2023-08-24T13:50:51;4.70;;;1.60;;
57899;SDS011;60605;53.716;19.940;2023-08-24T13:55:54;4.70;;;1.50;;
57899;SDS011;60605;53.716;19.940;2023-08-24T14:00:56;2.70;;;1.70;;
57899;SDS011;60605;53.716;19.940;2023-08-24T14:05:59;1.80;;;1.60;;
57899;SDS011;60605;53.716;19.940;2023-08-24T14:11:02;2.40;;;1.50;;
57899;SDS011;60605;53.716;19.940;2023-08-24T14:16:04;3.40;;;1.70;;
57899;SDS011;60605;53.716;19.940;2023-08-24T14:21:06;3.80;;;1.60;;
57899;SDS011;60605;53.716;19.940;2023-08-24T14:26:09;2.20;;;1.70;;
57899;SDS011;60605;53.716;19.940;2023-08-24T14:31:14;7.10;;;2.00;;
57899;SDS011;60605;53.716;19.940;2023-08-24T14:36:17;1.80;;;1.60;;
57899;SDS011;60605;53.716;19.940;2023-08-24T14:41:21;1.90;;;1.70;;
57899;SDS011;60605;53.716;19.940;2023-08-24T14:46:23;4.40;;;1.80;;
57899;SDS011;60605;53.716;19.940;2023-08-24T14:51:26;4.00;;;1.80;;
57899;SDS011;60605;53.716;19.940;2023-08-24T15:06:32;4.30;;;1.60;;
57899;SDS011;60605;53.716;19.940;2023-08-24T15:11:34;2.70;;;1.60;;
57899;SDS011;60605;53.716;19.940;2023-08-24T15:16:35;2.70;;;1.70;;
57899;SDS011;60605;53.716;19.940;2023-08-24T15:21:38;2.10;;;1.60;;
57899;SDS011;60605;53.716;19.940;2023-08-24T15:31:41;3.80;;;1.70;;
57899;SDS011;60605;53.716;19.940;2023-08-24T15:36:44;2.40;;;1.60;;
57899;SDS011;60605;53.716;19.940;2023-08-24T15:41:46;1.70;;;1.60;;
57899;SDS011;60605;53.716;19.940;2023-08-24T15:46:48;4.40;;;1.80;;
57899;SDS011;60605;53.716;19.940;2023-08-24T15:51:53;2.80;;;1.60;;
57899;SDS011;60605;53.716;19.940;2023-08-24T15:56:55;5.60;;;1.80;;
57899;SDS011;60605;53.716;19.940;2023-08-24T16:01:58;3.20;;;1.90;;
57899;SDS011;60605;53.716;19.940;2023-08-24T16:06:59;2.10;;;1.70;;
57899;SDS011;60605;53.716;19.940;2023-08-24T16:12:01;23.00;;;4.50;;
57899;SDS011;60605;53.716;19.940;2023-08-24T16:17:04;13.00;;;2.10;;
57899;SDS011;60605;53.716;19.940;2023-08-24T16:22:06;3.50;;;1.80;;
57899;SDS011;60605;53.716;19.940;2023-08-24T16:27:08;2.20;;;1.60;;
57899;SDS011;60605;53.716;19.940;2023-08-24T16:32:10;2.10;;;1.80;;
57899;SDS011;60605;53.716;19.940;2023-08-24T16:37:12;2.10;;;1.60;;
57899;SDS011;60605;53.716;19.940;2023-08-24T16:42:16;2.50;;;1.80;;
57899;SDS011;60605;53.716;19.940;2023-08-24T16:47:19;3.50;;;1.90;;
57899;SDS011;60605;53.716;19.940;2023-08-24T16:52:21;2.30;;;1.90;;
57899;SDS011;60605;53.716;19.940;2023-08-24T16:57:23;3.40;;;1.80;;
57899;SDS011;60605;53.716;19.940;2023-08-24T17:07:28;10.70;;;2.60;;
57899;SDS011;60605;53.716;19.940;2023-08-24T17:12:31;2.50;;;1.90;;
57899;SDS011;60605;53.716;19.940;2023-08-24T17:17:35;2.50;;;2.10;;
57899;SDS011;60605;53.716;19.940;2023-08-24T17:22:37;4.00;;;2.20;;
57899;SDS011;60605;53.716;19.940;2023-08-24T17:27:40;3.20;;;2.80;;
57899;SDS011;60605;53.716;19.940;2023-08-24T17:32:42;5.30;;;2.90;;
57899;SDS011;60605;53.716;19.940;2023-08-24T17:37:45;4.60;;;2.50;;
57899;SDS011;60605;53.716;19.940;2023-08-24T17:42:47;3.40;;;2.40;;
57899;SDS011;60605;53.716;19.940;2023-08-24T17:47:50;7.00;;;4.90;;
57899;SDS011;60605;53.716;19.940;2023-08-24T17:57:54;7.20;;;3.00;;
57899;SDS011;60605;53.716;19.940;2023-08-24T18:02:57;6.60;;;2.60;;
57899;SDS011;60605;53.716;19.940;2023-08-24T18:07:59;10.70;;;3.20;;
57899;SDS011;60605;53.716;19.940;2023-08-24T18:13:01;8.90;;;3.70;;
57899;SDS011;60605;53.716;19.940;2023-08-24T18:18:04;4.30;;;2.60;;
57899;SDS011;60605;53.716;19.940;2023-08-24T18:23:07;7.00;;;2.70;;
57899;SDS011;60605;53.716;19.940;2023-08-24T18:28:09;6.00;;;5.40;;
57899;SDS011;60605;53.716;19.940;2023-08-24T18:33:11;9.50;;;5.20;;
57899;SDS011;60605;53.716;19.940;2023-08-24T18:43:15;11.80;;;4.90;;
57899;SDS011;60605;53.716;19.940;2023-08-24T18:48:17;11.90;;;6.00;;
57899;SDS011;60605;53.716;19.940;2023-08-24T18:53:19;12.40;;;5.80;;
57899;SDS011;60605;53.716;19.940;2023-08-24T18:58:21;7.90;;;5.60;;
57899;SDS011;60605;53.716;19.940;2023-08-24T19:03:23;8.80;;;5.30;;
57899;SDS011;60605;53.716;19.940;2023-08-24T19:08:25;8.40;;;4.70;;
57899;SDS011;60605;53.716;19.940;2023-08-24T19:13:27;8.40;;;5.50;;
57899;SDS011;60605;53.716;19.940;2023-08-24T19:18:30;9.10;;;5.50;;
57899;SDS011;60605;53.716;19.940;2023-08-24T19:23:32;9.60;;;5.70;;
57899;SDS011;60605;53.716;19.940;2023-08-24T19:28:36;6.70;;;4.90;;
57899;SDS011;60605;53.716;19.940;2023-08-24T19:33:38;9.60;;;4.60;;
57899;SDS011;60605;53.716;19.940;2023-08-24T19:38:40;11.30;;;6.70;;
57899;SDS011;60605;53.716;19.940;2023-08-24T19:43:43;10.00;;;6.20;;
57899;SDS011;60605;53.716;19.940;2023-08-24T19:48:46;7.90;;;5.20;;
57899;SDS011;60605;53.716;19.940;2023-08-24T19:53:48;9.20;;;6.20;;
57899;SDS011;60605;53.716;19.940;2023-08-24T19:58:51;12.20;;;6.10;;
57899;SDS011;60605;53.716;19.940;2023-08-24T20:03:54;8.00;;;5.40;;
57899;SDS011;60605;53.716;19.940;2023-08-24T20:13:59;8.60;;;5.20;;
57899;SDS011;60605;53.716;19.940;2023-08-24T20:19:02;12.10;;;7.00;;
57899;SDS011;60605;53.716;19.940;2023-08-24T20:24:06;8.70;;;6.10;;
57899;SDS011;60605;53.716;19.940;2023-08-24T20:29:11;10.70;;;5.60;;
57899;SDS011;60605;53.716;19.940;2023-08-24T20:34:15;10.40;;;6.00;;
57899;SDS011;60605;53.716;19.940;2023-08-24T20:39:19;7.50;;;5.10;;
57899;SDS011;60605;53.716;19.940;2023-08-24T20:44:23;11.10;;;5.70;;
57899;SDS011;60605;53.716;19.940;2023-08-24T20:49:26;8.90;;;6.10;;
57899;SDS011;60605;53.716;19.940;2023-08-24T20:54:30;9.10;;;6.00;;
57899;SDS011;60605;53.716;19.940;2023-08-24T20:59:32;10.20;;;5.80;;
57899;SDS011;60605;53.716;19.940;2023-08-24T21:04:34;7.20;;;5.40;;
57899;SDS011;60605;53.716;19.940;2023-08-24T21:09:37;10.50;;;5.60;;
57899;SDS011;60605;53.716;19.940;2023-08-24T21:14:39;6.60;;;5.60;;
57899;SDS011;60605;53.716;19.940;2023-08-24T21:19:41;7.70;;;5.90;;
57899;SDS011;60605;53.716;19.940;2023-08-24T21:24:43;9.20;;;5.80;;
57899;SDS011;60605;53.716;19.940;2023-08-24T21:29:45;7.70;;;5.20;;
57899;SDS011;60605;53.716;19.940;2023-08-24T21:34:47;7.90;;;5.10;;
57899;SDS011;60605;53.716;19.940;2023-08-24T21:39:49;7.50;;;5.20;;
57899;SDS011;60605;53.716;19.940;2023-08-24T21:44:51;7.80;;;5.50;;
57899;SDS011;60605;53.716;19.940;2023-08-24T21:49:53;6.50;;;5.00;;
57899;SDS011;60605;53.716;19.940;2023-08-24T21:54:55;9.40;;;5.70;;
57899;SDS011;60605;53.716;19.940;2023-08-24T21:59:57;8.40;;;4.70;;
57899;SDS011;60605;53.716;19.940;2023-08-24T22:04:59;6.30;;;4.60;;
57899;SDS011;60605;53.716;19.940;2023-08-24T22:10:07;10.00;;;5.10;;
57899;SDS011;60605;53.716;19.940;2023-08-24T22:15:10;6.30;;;4.70;;
57899;SDS011;60605;53.716;19.940;2023-08-24T22:20:12;8.60;;;5.50;;
57899;SDS011;60605;53.716;19.940;2023-08-24T22:30:17;5.80;;;5.00;;
57899;SDS011;60605;53.716;19.940;2023-08-24T22:35:21;6.10;;;5.00;;
57899;SDS011;60605;53.716;19.940;2023-08-24T22:40:23;9.00;;;5.60;;
57899;SDS011;60605;53.716;19.940;2023-08-24T22:45:40;11.50;;;5.20;;
57899;SDS011;60605;53.716;19.940;2023-08-24T22:50:43;8.50;;;4.80;;
57899;SDS011;60605;53.716;19.940;2023-08-24T22:55:45;9.70;;;5.20;;
57899;SDS011;60605;53.716;19.940;2023-08-24T23:00:48;8.90;;;5.20;;
57899;SDS011;60605;53.716;19.940;2023-08-24T23:05:50;7.20;;;5.40;;
57899;SDS011;60605;53.716;19.940;2023-08-24T23:15:54;8.30;;;5.00;;
57899;SDS011;60605;53.716;19.940;2023-08-24T23:20:56;7.50;;;4.80;;
57899;SDS011;60605;53.716;19.940;2023-08-24T23:25:58;6.80;;;4.90;;
57899;SDS011;60605;53.716;19.940;2023-08-24T23:31:00;5.30;;;4.60;;
57899;SDS011;60605;53.716;19.940;2023-08-24T23:36:02;5.40;;;4.90;;
57899;SDS011;60605;53.716;19.940;2023-08-24T23:41:05;7.30;;;4.80;;
57899;SDS011;60605;53.716;19.940;2023-08-24T23:46:08;12.30;;;5.80;;
57899;SDS011;60605;53.716;19.940;2023-08-24T23:51:10;7.70;;;4.70;;
57899;SDS011;60605;53.716;19.940;2023-08-24T23:56:13;5.40;;;4.50;;
